Time;durP1;ratioP1;P1;durP2;ratioP2;P2;SDS_P1;SDS_P2;PMS_P1;PMS_P2;Temp;Humidity;BMP_temperature;BMP_pressure;BME280_temperature;BME280_humidity;BME280_pressure;Samples;Min_cycle;Max_cycle;Signal;HPM_P1;HPM_P2
2023/10/17 00:01:21;;;;;;;7.40;5.10;;;6.50;99.90;;;;;;5055988;28;20745;-80
2023/10/17 00:03:48;;;;;;;7.50;4.73;;;6.60;99.90;;;;;;5052473;28;20208;-80
2023/10/17 00:06:22;;;;;;;5.77;4.40;;;6.40;99.90;;;;;;5054624;28;20211;-80
2023/10/17 00:08:51;;;;;;;6.23;4.83;;;6.40;99.90;;;;;;5058147;28;20284;-80
2023/10/17 00:11:20;;;;;;;9.07;5.60;;;6.50;99.90;;;;;;5049891;28;20257;-80
2023/10/17 00:13:59;;;;;;;13.73;5.20;;;6.50;99.90;;;;;;5053554;28;20199;-80
2023/10/17 00:16:28;;;;;;;9.10;5.57;;;6.40;99.90;;;;;;5056091;28;20234;-80
2023/10/17 00:18:55;;;;;;;9.73;5.47;;;6.80;99.90;;;;;;5051044;28;20270;-79
2023/10/17 00:21:23;;;;;;;10.20;5.97;;;6.50;99.90;;;;;;5051712;28;20199;-79
2023/10/17 00:23:51;;;;;;;7.87;5.30;;;6.50;99.90;;;;;;5055996;28;20549;-80
2023/10/17 00:26:19;;;;;;;8.13;5.20;;;6.40;99.90;;;;;;5053461;28;20209;-79
2023/10/17 00:28:48;;;;;;;16.87;5.23;;;6.30;99.90;;;;;;5049142;28;20222;-80
2023/10/17 00:31:16;;;;;;;33.00;6.00;;;6.20;99.90;;;;;;5056332;28;20206;-80
2023/10/17 00:33:48;;;;;;;9.93;5.77;;;6.10;99.90;;;;;;5054758;28;20602;-80
2023/10/17 00:36:16;;;;;;;8.23;5.07;;;6.20;99.90;;;;;;5054415;28;20211;-80
2023/10/17 00:38:45;;;;;;;8.47;5.77;;;6.20;99.90;;;;;;5045876;28;20239;-80
2023/10/17 00:41:18;;;;;;;7.53;5.67;;;6.10;99.90;;;;;;5052614;28;20199;-78
2023/10/17 00:43:45;;;;;;;9.30;6.20;;;6.10;99.90;;;;;;5055921;28;20206;-79
2023/10/17 00:46:12;;;;;;;7.83;6.27;;;6.50;99.90;;;;;;5057512;28;20205;-79
2023/10/17 00:48:39;;;;;;;9.27;5.63;;;6.60;99.90;;;;;;5057061;28;20247;-79
2023/10/17 00:51:09;;;;;;;11.57;5.50;;;6.00;99.90;;;;;;5056908;28;20221;-78
2023/10/17 00:53:39;;;;;;;11.00;5.60;;;5.80;99.90;;;;;;5057174;28;20547;-78
2023/10/17 00:56:08;;;;;;;14.77;6.17;;;5.70;99.90;;;;;;5054829;28;20684;-79
2023/10/17 00:58:35;;;;;;;9.50;5.50;;;5.70;99.90;;;;;;5049845;28;20218;-79
2023/10/17 01:01:14;;;;;;;9.07;6.40;;;5.60;99.90;;;;;;5046580;28;20658;-79
2023/10/17 01:03:43;;;;;;;11.83;5.83;;;5.70;99.90;;;;;;5048672;28;20194;-79
2023/10/17 01:06:21;;;;;;;10.73;5.70;;;5.90;99.90;;;;;;5056880;28;20203;-79
2023/10/17 01:08:49;;;;;;;13.17;5.90;;;5.80;99.90;;;;;;5042989;28;20215;-79
2023/10/17 01:11:21;;;;;;;11.07;5.73;;;5.70;99.90;;;;;;5051780;28;20620;-79
2023/10/17 01:13:50;;;;;;;11.70;6.70;;;5.70;99.90;;;;;;5048466;28;20195;-79
2023/10/17 01:16:18;;;;;;;16.63;6.17;;;5.70;99.90;;;;;;5055913;28;20321;-79
2023/10/17 01:18:46;;;;;;;11.10;6.03;;;5.60;99.90;;;;;;5043624;28;20649;-79
2023/10/17 01:21:14;;;;;;;11.23;5.40;;;5.40;99.90;;;;;;5050387;28;20234;-79
2023/10/17 01:23:41;;;;;;;14.23;5.17;;;5.50;99.90;;;;;;5050115;28;20199;-79
2023/10/17 01:26:14;;;;;;;9.27;5.73;;;5.60;99.90;;;;;;5053056;28;20206;-79
2023/10/17 01:28:45;;;;;;;10.03;5.70;;;5.60;99.90;;;;;;5055260;28;20218;-79
2023/10/17 01:31:14;;;;;;;11.07;5.40;;;5.50;99.90;;;;;;5050004;28;20704;-79
2023/10/17 01:33:42;;;;;;;15.97;6.03;;;5.40;99.90;;;;;;5048801;28;20282;-79
2023/10/17 01:36:10;;;;;;;8.67;5.53;;;5.70;99.90;;;;;;5056555;28;20329;-79
2023/10/17 01:38:38;;;;;;;7.50;5.73;;;5.30;99.90;;;;;;5054796;28;20219;-78
2023/10/17 01:41:06;;;;;;;17.17;5.90;;;5.40;99.90;;;;;;5055412;28;20230;-79
2023/10/17 01:43:40;;;;;;;16.67;6.17;;;5.50;99.90;;;;;;5044478;28;20204;-79
2023/10/17 01:46:09;;;;;;;32.00;6.97;;;5.60;99.90;;;;;;5051539;28;20202;-79
2023/10/17 01:48:36;;;;;;;22.83;5.80;;;5.40;99.90;;;;;;5054620;28;20226;-79
2023/10/17 01:51:06;;;;;;;20.70;5.37;;;5.40;99.90;;;;;;5047194;28;20211;-78
2023/10/17 01:53:35;;;;;;;23.63;5.40;;;5.20;99.90;;;;;;5047494;28;20215;-78
2023/10/17 01:56:13;;;;;;;12.67;4.57;;;5.30;99.90;;;;;;5047474;28;20661;-78
2023/10/17 01:58:42;;;;;;;10.90;5.40;;;5.20;99.90;;;;;;5047720;28;20266;-79
2023/10/17 02:01:14;;;;;;;14.00;5.00;;;5.30;99.90;;;;;;5043833;28;20249;-79
2023/10/17 02:03:41;;;;;;;6.10;5.03;;;5.50;99.90;;;;;;5052498;28;20206;-79
2023/10/17 02:06:13;;;;;;;10.70;5.57;;;5.50;99.90;;;;;;5039984;28;20195;-79
2023/10/17 02:08:41;;;;;;;7.83;4.80;;;5.60;99.90;;;;;;5046717;28;20222;-79
2023/10/17 02:11:12;;;;;;;8.67;5.13;;;5.60;99.90;;;;;;5049692;28;20553;-79
2023/10/17 02:13:42;;;;;;;18.60;5.10;;;5.60;99.90;;;;;;5054022;28;20624;-79
2023/10/17 02:16:10;;;;;;;6.00;4.90;;;6.00;99.90;;;;;;5050513;28;20203;-79
2023/10/17 02:18:38;;;;;;;10.13;5.80;;;5.60;99.90;;;;;;5048480;28;20250;-79
2023/10/17 02:21:05;;;;;;;11.57;5.47;;;5.80;99.90;;;;;;5053779;28;20245;-79
2023/10/17 02:23:39;;;;;;;18.33;6.00;;;5.70;99.90;;;;;;5054728;28;20206;-79
2023/10/17 02:26:10;;;;;;;15.93;5.67;;;5.70;99.90;;;;;;5051125;28;20640;-79
2023/10/17 02:28:46;;;;;;;13.77;5.87;;;5.70;99.90;;;;;;5044403;28;20220;-79
2023/10/17 02:31:15;;;;;;;12.03;5.50;;;6.20;99.90;;;;;;5045608;28;20230;-79
2023/10/17 02:33:43;;;;;;;17.20;6.40;;;5.70;99.90;;;;;;5051545;28;20215;-79
2023/10/17 02:36:12;;;;;;;25.03;6.13;;;5.80;99.90;;;;;;5050844;28;20272;-79
2023/10/17 02:38:40;;;;;;;10.47;5.60;;;5.70;99.90;;;;;;5054910;28;20242;-80
2023/10/17 02:41:12;;;;;;;19.03;5.77;;;5.70;99.90;;;;;;5054957;28;20203;-78
2023/10/17 02:43:40;;;;;;;12.23;5.87;;;5.70;99.90;;;;;;5050989;28;20213;-79
2023/10/17 02:46:07;;;;;;;14.60;6.00;;;5.80;99.90;;;;;;5054667;28;20248;-79
2023/10/17 02:48:42;;;;;;;13.97;5.93;;;5.80;99.90;;;;;;5055091;28;20605;-78
2023/10/17 02:54:05;;;;;;;30.60;8.37;;;5.80;99.90;;;;;;5039482;28;20199;-79
2023/10/17 02:56:36;;;;;;;84.93;9.60;;;5.80;99.90;;;;;;5058230;28;20199;-79
2023/10/17 02:59:06;;;;;;;53.53;9.43;;;5.90;99.90;;;;;;5047384;28;20272;-79
2023/10/17 03:01:36;;;;;;;43.20;9.10;;;5.90;99.90;;;;;;5051068;28;20678;-79
2023/10/17 03:04:08;;;;;;;30.93;8.33;;;6.50;99.90;;;;;;5053123;28;20225;-79
2023/10/17 03:06:37;;;;;;;39.90;9.13;;;5.90;99.90;;;;;;5052677;28;20202;-79
2023/10/17 03:09:16;;;;;;;53.53;10.30;;;5.90;99.90;;;;;;5047375;28;20219;-78
2023/10/17 03:11:50;;;;;;;52.93;8.37;;;5.90;99.90;;;;;;5049670;28;20203;-78
2023/10/17 03:14:22;;;;;;;50.37;8.80;;;6.10;99.90;;;;;;5047459;28;20198;-79
2023/10/17 03:16:52;;;;;;;63.23;9.50;;;5.80;99.90;;;;;;5056989;28;20257;-78
2023/10/17 03:19:25;;;;;;;110.83;12.33;;;5.80;99.90;;;;;;5057693;28;20231;-79
2023/10/17 03:21:55;;;;;;;100.60;11.33;;;6.00;99.90;;;;;;5053803;28;20298;-79
2023/10/17 03:24:28;;;;;;;53.43;9.07;;;5.70;99.90;;;;;;5047376;28;20203;-78
2023/10/17 03:27:03;;;;;;;31.10;8.70;;;5.70;99.90;;;;;;5049474;28;20276;-79
2023/10/17 03:29:34;;;;;;;34.27;8.57;;;5.90;99.90;;;;;;5049422;28;20223;-79
2023/10/17 03:32:03;;;;;;;32.00;7.33;;;5.90;99.90;;;;;;5052453;28;20219;-79
2023/10/17 03:34:35;;;;;;;69.07;8.33;;;6.00;99.90;;;;;;5054737;28;20289;-79
2023/10/17 03:37:26;;;;;;;21.60;8.03;;;5.80;99.90;;;;;;5052479;28;20207;-79
2023/10/17 03:39:54;;;;;;;25.67;8.30;;;5.80;99.90;;;;;;5050059;28;20605;-79
2023/10/17 03:42:41;;;;;;;28.47;7.80;;;5.90;99.90;;;;;;5058104;28;20206;-79
2023/10/17 03:45:16;;;;;;;15.10;7.93;;;5.90;99.90;;;;;;5058151;28;20206;-79
2023/10/17 03:47:44;;;;;;;29.80;8.10;;;6.00;99.90;;;;;;5058374;28;20279;-79
2023/10/17 03:50:22;;;;;;;43.97;8.27;;;5.90;99.90;;;;;;5057178;28;20223;-79
2023/10/17 03:52:49;;;;;;;36.43;8.13;;;5.90;99.90;;;;;;5050149;28;20626;-79
2023/10/17 03:55:21;;;;;;;69.30;20.93;;;5.80;99.90;;;;;;5046471;28;20295;-79
2023/10/17 03:57:54;;;;;;;81.37;11.97;;;5.70;99.90;;;;;;5045940;28;20643;-79
2023/10/17 04:00:27;;;;;;;31.90;8.37;;;5.50;99.90;;;;;;5054158;28;20230;-79
2023/10/17 04:02:54;;;;;;;19.90;8.17;;;5.70;99.90;;;;;;5048906;28;20252;-79
2023/10/17 04:05:23;;;;;;;49.77;9.60;;;5.70;99.90;;;;;;5048338;28;20289;-79
2023/10/17 04:07:53;;;;;;;21.77;8.37;;;5.70;99.90;;;;;;5049581;28;20213;-79
2023/10/17 04:10:21;;;;;;;17.97;7.10;;;5.90;99.90;;;;;;5045736;28;20302;-79
2023/10/17 04:13:10;;;;;;;34.17;9.30;;;5.90;99.90;;;;;;5053390;28;20233;-79
2023/10/17 04:15:42;;;;;;;19.20;8.30;;;5.70;99.90;;;;;;5051173;28;20199;-79
2023/10/17 04:18:10;;;;;;;36.47;9.87;;;5.80;99.90;;;;;;5056560;28;20234;-79
2023/10/17 04:20:39;;;;;;;30.47;8.77;;;5.80;99.90;;;;;;5048451;28;20604;-79
2023/10/17 04:23:07;;;;;;;33.33;8.67;;;5.80;99.90;;;;;;5057169;28;20298;-79
2023/10/17 04:25:38;;;;;;;22.57;8.60;;;5.80;99.90;;;;;;5055243;28;20210;-79
2023/10/17 04:28:06;;;;;;;40.00;8.63;;;5.90;99.90;;;;;;5046027;28;20202;-79
2023/10/17 04:30:37;;;;;;;21.97;7.87;;;5.90;99.90;;;;;;5055010;28;20258;-79
2023/10/17 04:33:12;;;;;;;19.03;8.33;;;6.00;99.90;;;;;;5055035;28;20209;-79
2023/10/17 04:35:46;;;;;;;17.70;9.30;;;6.00;99.90;;;;;;5056569;28;20210;-79
2023/10/17 04:38:19;;;;;;;32.07;9.03;;;6.10;99.90;;;;;;5056610;28;20217;-79
2023/10/17 04:40:53;;;;;;;54.53;9.23;;;5.90;99.90;;;;;;5049988;28;20689;-79
2023/10/17 04:46:08;;;;;;;115.53;10.60;;;5.70;99.90;;;;;;5053986;28;20248;-79
2023/10/17 04:48:35;;;;;;;24.63;7.67;;;5.50;99.90;;;;;;5055061;28;20630;-79
2023/10/17 04:51:20;;;;;;;37.47;8.67;;;5.70;99.90;;;;;;5047090;28;20725;-79
2023/10/17 04:53:48;;;;;;;20.37;7.70;;;5.80;99.90;;;;;;5045051;28;20203;-79
2023/10/17 04:56:16;;;;;;;23.37;8.27;;;5.80;99.90;;;;;;5052687;28;20206;-79
2023/10/17 04:58:48;;;;;;;19.83;7.73;;;5.80;99.90;;;;;;5056181;28;20268;-79
2023/10/17 05:01:34;;;;;;;31.00;8.70;;;5.80;99.90;;;;;;5054670;28;20261;-79
2023/10/17 05:04:12;;;;;;;50.10;8.80;;;5.70;99.90;;;;;;5053481;28;20201;-79
2023/10/17 06:16:49;;;;;;;35.27;9.00;;;5.80;99.90;;;;;;5055292;28;20230;-79
2023/10/17 06:18:26;;;;;;;29.17;9.90;;;5.40;99.90;;;;;;5017236;28;20243;-79
2023/10/17 06:21:18;;;;;;;16.93;7.83;;;5.50;99.90;;;;;;5048115;28;20238;-79
2023/10/17 06:32:06;;;;;;;48.27;8.53;;;5.60;99.90;;;;;;5049792;28;20679;-79
2023/10/17 06:34:33;;;;;;;35.60;8.30;;;6.50;99.90;;;;;;5048002;28;20207;-79
2023/10/17 06:37:02;;;;;;;16.37;6.93;;;6.60;99.90;;;;;;5051058;28;20697;-80
2023/10/17 06:39:36;;;;;;;29.80;8.40;;;6.20;99.90;;;;;;5055216;28;20223;-79
2023/10/17 06:42:14;;;;;;;50.03;8.33;;;5.70;99.90;;;;;;5055658;28;20226;-79
2023/10/17 06:44:52;;;;;;;14.83;8.37;;;5.50;99.90;;;;;;5055732;28;20202;-79
2023/10/17 06:47:22;;;;;;;27.20;7.83;;;5.90;99.90;;;;;;5055469;28;20297;-79
2023/10/17 06:52:59;;;;;;;12.00;7.30;;;5.70;99.90;;;;;;5155275;27;20599;-80
2023/10/17 06:55:29;;;;;;;32.00;8.27;;;6.00;99.90;;;;;;5154137;27;20207;-80
2023/10/17 06:58:08;;;;;;;29.20;7.87;;;5.90;99.90;;;;;;5151579;27;20226;-80
2023/10/17 07:00:43;;;;;;;33.73;7.57;;;5.90;99.90;;;;;;5153142;27;20223;-81
2023/10/17 07:03:13;;;;;;;19.27;7.77;;;5.80;99.90;;;;;;5154724;27;20207;-80
2023/10/17 07:05:40;;;;;;;34.90;7.83;;;5.90;99.90;;;;;;5145697;27;20220;-81
2023/10/17 07:08:14;;;;;;;31.83;7.30;;;6.50;99.90;;;;;;5150379;27;20234;-81
2023/10/17 07:10:53;;;;;;;29.30;8.90;;;5.50;99.90;;;;;;5153116;27;20244;-80
2023/10/17 07:16:53;;;;;;;34.37;8.30;;;5.90;99.90;;;;;;5152327;27;20199;-80
2023/10/17 07:22:11;;;;;;;13.60;7.53;;;6.20;99.90;;;;;;5154882;27;20628;-80
2023/10/17 07:24:42;;;;;;;12.33;7.53;;;6.30;99.90;;;;;;5149640;27;20231;-80
2023/10/17 07:27:18;;;;;;;12.67;6.83;;;6.20;99.90;;;;;;5147728;27;20219;-80
2023/10/17 07:29:58;;;;;;;13.57;6.10;;;6.00;99.90;;;;;;5147643;27;20227;-81
2023/10/17 07:32:32;;;;;;;13.13;7.07;;;6.10;99.90;;;;;;5154475;27;20227;-81
2023/10/17 07:35:04;;;;;;;14.67;6.87;;;6.20;99.90;;;;;;5155096;27;20557;-81
2023/10/17 07:37:44;;;;;;;15.13;7.40;;;6.10;99.90;;;;;;5152905;27;20200;-80
2023/10/17 07:40:22;;;;;;;17.33;7.77;;;6.10;99.90;;;;;;5145533;27;20238;-81
2023/10/17 07:42:52;;;;;;;45.63;9.53;;;6.20;99.90;;;;;;5141653;27;20195;-80
2023/10/17 07:45:21;;;;;;;27.60;8.93;;;6.20;99.90;;;;;;5154575;27;20202;-81
2023/10/17 07:47:54;;;;;;;24.10;9.47;;;6.30;99.90;;;;;;5154373;27;20792;-81
2023/10/17 07:50:25;;;;;;;30.73;10.07;;;6.30;99.90;;;;;;5154221;27;20231;-81
2023/10/17 07:52:54;;;;;;;24.03;10.53;;;6.30;99.90;;;;;;5152477;27;20220;-81
2023/10/17 07:55:34;;;;;;;19.60;9.87;;;6.40;99.90;;;;;;5152362;27;20208;-80
2023/10/17 07:58:06;;;;;;;23.53;11.47;;;6.30;99.90;;;;;;5148138;27;20238;-81
2023/10/17 08:00:34;;;;;;;26.30;10.57;;;6.40;99.90;;;;;;5152436;27;20637;-80
2023/10/17 08:03:07;;;;;;;72.43;10.43;;;6.50;99.90;;;;;;5138320;27;20211;-80
2023/10/17 08:05:37;;;;;;;57.23;12.67;;;6.50;99.90;;;;;;5130787;27;20205;-81
2023/10/17 08:08:08;;;;;;;24.87;10.27;;;6.20;99.90;;;;;;5134234;27;20218;-81
2023/10/17 08:10:38;;;;;;;27.73;10.60;;;6.50;99.90;;;;;;5131065;27;20224;-81
2023/10/17 08:13:07;;;;;;;23.60;8.83;;;6.60;99.90;;;;;;5124857;27;20201;-80
2023/10/17 08:15:38;;;;;;;35.80;9.30;;;6.90;99.90;;;;;;5131993;27;20253;-81
2023/10/17 08:18:14;;;;;;;21.57;8.97;;;6.70;99.90;;;;;;5129342;27;20200;-80
2023/10/17 08:20:59;;;;;;;31.10;8.63;;;6.60;99.90;;;;;;5132304;27;20760;-79
2023/10/17 08:23:26;;;;;;;18.97;9.30;;;6.60;99.90;;;;;;5129071;27;20670;-80
2023/10/17 08:25:59;;;;;;;23.07;9.97;;;6.50;99.90;;;;;;5139723;27;20212;-78
2023/10/17 08:28:33;;;;;;;18.83;9.83;;;6.60;99.90;;;;;;5139433;27;20219;-78
2023/10/17 08:31:17;;;;;;;23.30;9.33;;;6.50;99.90;;;;;;5129639;27;20192;-79
2023/10/17 08:33:47;;;;;;;35.83;11.63;;;6.70;99.90;;;;;;5126337;27;20230;-78
2023/10/17 08:36:14;;;;;;;38.00;11.20;;;7.40;99.90;;;;;;5129739;27;20260;-77
2023/10/17 08:38:40;;;;;;;45.93;10.93;;;6.80;99.90;;;;;;5127105;27;20221;-79
2023/10/17 08:41:08;;;;;;;20.13;10.17;;;6.70;99.90;;;;;;5133776;27;20245;-79
2023/10/17 08:43:36;;;;;;;21.57;11.20;;;6.90;99.90;;;;;;5139137;27;20208;-79
2023/10/17 08:46:09;;;;;;;23.90;11.00;;;7.00;99.90;;;;;;5135907;27;20201;-79
2023/10/17 08:48:37;;;;;;;22.20;9.80;;;6.90;99.90;;;;;;5127869;27;20200;-80
2023/10/17 08:51:07;;;;;;;23.77;11.33;;;6.80;99.90;;;;;;5136117;27;20208;-78
2023/10/17 08:53:35;;;;;;;22.27;11.27;;;6.90;99.90;;;;;;5138719;27;20661;-80
2023/10/17 08:56:02;;;;;;;23.87;11.37;;;7.00;99.90;;;;;;5135252;27;20211;-80
2023/10/17 08:58:33;;;;;;;22.57;11.40;;;6.90;99.90;;;;;;5133538;27;20227;-79
2023/10/17 09:01:10;;;;;;;24.13;12.20;;;6.90;99.90;;;;;;5131366;27;20251;-79
2023/10/17 09:03:42;;;;;;;25.40;12.27;;;6.90;99.90;;;;;;5132677;27;20208;-79
2023/10/17 09:06:28;;;;;;;25.90;13.67;;;7.00;99.90;;;;;;5124089;27;20279;-79
2023/10/17 09:12:01;;;;;;;27.60;14.27;;;7.40;99.90;;;;;;5126948;27;20224;-78
2023/10/17 09:14:35;;;;;;;29.93;14.43;;;6.90;99.90;;;;;;5133203;27;20193;-77
2023/10/17 09:17:10;;;;;;;31.43;15.33;;;7.00;99.90;;;;;;5139492;27;20199;-78
2023/10/17 09:19:46;;;;;;;34.80;16.47;;;6.90;99.90;;;;;;5132192;27;20227;-79
2023/10/17 09:22:14;;;;;;;37.93;17.53;;;7.00;99.90;;;;;;5133336;27;20231;-79
2023/10/17 09:24:45;;;;;;;37.40;18.27;;;7.10;99.90;;;;;;5140270;27;20193;-79
2023/10/17 09:27:14;;;;;;;37.87;18.17;;;7.20;99.90;;;;;;5134502;27;20200;-77
2023/10/17 09:29:55;;;;;;;37.97;18.80;;;7.20;99.90;;;;;;5135174;27;20594;-78
2023/10/17 09:32:35;;;;;;;38.27;18.50;;;7.10;99.90;;;;;;5135562;27;20300;-78
2023/10/17 09:35:10;;;;;;;35.60;18.07;;;7.80;99.90;;;;;;5124142;27;20592;-78
2023/10/17 09:37:38;;;;;;;35.47;18.00;;;7.20;99.90;;;;;;5132690;27;20295;-79
2023/10/17 09:40:11;;;;;;;36.60;21.00;;;7.20;99.90;;;;;;5132788;27;20226;-78
2023/10/17 09:42:40;;;;;;;36.40;21.10;;;7.40;99.90;;;;;;5128105;27;20223;-77
2023/10/17 09:45:10;;;;;;;35.10;19.57;;;7.50;99.90;;;;;;5133599;27;20651;-78
2023/10/17 09:47:41;;;;;;;36.33;18.37;;;7.70;99.90;;;;;;5136253;27;20213;-78
2023/10/17 09:50:13;;;;;;;34.43;17.53;;;7.80;99.90;;;;;;5123715;27;20262;-78
2023/10/17 09:52:41;;;;;;;29.77;16.23;;;7.50;99.90;;;;;;5134005;27;20230;-78
2023/10/17 09:55:13;;;;;;;30.13;16.30;;;7.60;99.90;;;;;;5128022;27;20196;-78
2023/10/17 09:57:43;;;;;;;30.33;15.03;;;8.00;99.90;;;;;;5129715;27;20306;-77
2023/10/17 10:00:18;;;;;;;28.40;14.60;;;7.70;99.90;;;;;;5130127;27;20580;-78
2023/10/17 10:02:49;;;;;;;30.77;14.53;;;7.90;99.90;;;;;;5132966;27;20214;-79
2023/10/17 10:05:24;;;;;;;27.40;14.77;;;7.90;99.90;;;;;;5134840;27;20196;-78
2023/10/17 10:07:51;;;;;;;30.13;17.53;;;7.90;99.90;;;;;;5130496;27;20192;-78
2023/10/17 10:10:52;;;;;;;30.17;14.93;;;7.90;99.90;;;;;;5132519;27;20231;-78
2023/10/17 10:13:20;;;;;;;27.53;15.10;;;7.80;99.90;;;;;;5132152;27;20216;-80
2023/10/17 10:15:53;;;;;;;27.67;14.47;;;7.90;99.90;;;;;;5134088;27;20673;-79
2023/10/17 10:18:58;;;;;;;27.23;14.47;;;8.10;99.90;;;;;;5128270;27;20292;-78
2023/10/17 10:21:55;;;;;;;26.97;14.10;;;8.20;99.90;;;;;;5100488;27;20239;-80
2023/10/17 10:24:26;;;;;;;28.00;14.57;;;8.30;99.90;;;;;;5130759;27;20679;-79
2023/10/17 10:27:18;;;;;;;31.10;15.47;;;8.30;99.90;;;;;;5130644;27;20195;-78
2023/10/17 10:29:47;;;;;;;22.03;12.57;;;8.30;99.90;;;;;;5133246;27;20224;-78
2023/10/17 10:32:32;;;;;;;23.93;12.80;;;8.40;99.90;;;;;;5131309;27;20242;-79
2023/10/17 10:35:00;;;;;;;23.33;13.07;;;8.60;99.90;;;;;;5123191;27;20647;-80
2023/10/17 10:37:27;;;;;;;23.90;12.47;;;8.50;99.90;;;;;;5127100;27;20214;-78
2023/10/17 10:40:10;;;;;;;22.23;11.97;;;8.50;99.90;;;;;;5126971;27;20593;-78
2023/10/17 10:42:48;;;;;;;22.70;11.77;;;8.50;99.90;;;;;;5130040;27;20200;-78
2023/10/17 10:45:42;;;;;;;22.63;12.40;;;8.70;99.90;;;;;;5128611;27;20211;-78
2023/10/17 10:48:15;;;;;;;21.03;12.43;;;8.80;99.90;;;;;;5130461;27;20204;-80
2023/10/17 10:50:43;;;;;;;21.17;11.47;;;8.70;99.90;;;;;;5128870;28;20205;-78
2023/10/17 10:53:21;;;;;;;20.07;11.40;;;8.80;99.90;;;;;;5129314;28;20220;-77
2023/10/17 10:55:59;;;;;;;20.73;12.00;;;8.60;99.90;;;;;;5136985;28;20208;-79
2023/10/17 10:58:27;;;;;;;23.57;11.93;;;8.60;99.90;;;;;;5135908;28;20192;-78
2023/10/17 11:00:58;;;;;;;21.73;12.40;;;8.60;99.90;;;;;;5128488;28;20254;-78
2023/10/17 11:03:27;;;;;;;20.07;11.57;;;8.70;99.90;;;;;;5134149;28;20189;-80
2023/10/17 11:05:56;;;;;;;20.93;11.07;;;8.70;99.90;;;;;;5129756;28;20211;-79
2023/10/17 11:08:24;;;;;;;20.50;11.40;;;8.80;99.90;;;;;;5135890;28;20197;-79
2023/10/17 11:10:51;;;;;;;22.27;11.43;;;8.80;99.90;;;;;;5129123;28;20208;-78
2023/10/17 11:13:19;;;;;;;16.87;9.03;;;8.90;99.90;;;;;;5126744;28;20234;-81
2023/10/17 11:15:47;;;;;;;17.40;9.70;;;8.90;99.90;;;;;;5122203;28;20273;-80
2023/10/17 11:18:16;;;;;;;17.47;9.50;;;9.30;99.90;;;;;;5125999;28;20203;-79
2023/10/17 11:20:46;;;;;;;17.43;9.10;;;9.00;99.90;;;;;;5123440;27;20197;-78
2023/10/17 11:23:14;;;;;;;18.73;10.50;;;8.80;99.90;;;;;;5128422;28;20234;-78
2023/10/17 11:25:46;;;;;;;17.43;10.17;;;9.00;99.90;;;;;;5126151;28;20203;-77
2023/10/17 11:28:16;;;;;;;18.53;10.37;;;8.90;99.90;;;;;;5132020;28;20666;-77
2023/10/17 11:30:45;;;;;;;16.93;10.07;;;9.10;99.90;;;;;;5127339;28;20260;-77
2023/10/17 11:33:15;;;;;;;18.50;10.03;;;9.20;99.90;;;;;;5129430;27;20699;-79
2023/10/17 11:35:53;;;;;;;17.77;10.27;;;10.10;99.90;;;;;;5129628;28;20651;-78
2023/10/17 11:38:34;;;;;;;19.83;10.03;;;9.20;99.90;;;;;;5132147;27;20193;-77
2023/10/17 11:41:02;;;;;;;17.97;10.03;;;9.10;99.90;;;;;;5142459;27;20280;-77
2023/10/17 11:43:34;;;;;;;18.53;10.47;;;9.30;99.90;;;;;;5138022;27;20581;-77
2023/10/17 11:46:01;;;;;;;17.13;10.10;;;9.30;99.90;;;;;;5131463;27;20281;-79
2023/10/17 11:48:31;;;;;;;18.87;10.43;;;9.30;99.90;;;;;;5137268;27;20606;-79
2023/10/17 11:51:05;;;;;;;18.07;9.93;;;9.70;99.90;;;;;;5127291;27;20221;-78
2023/10/17 11:53:32;;;;;;;21.73;12.00;;;9.10;99.90;;;;;;5132618;27;20219;-79
2023/10/17 11:56:01;;;;;;;20.17;11.30;;;9.20;99.90;;;;;;5140556;27;20200;-79
2023/10/17 11:58:30;;;;;;;20.30;11.80;;;9.30;99.90;;;;;;5137026;27;20239;-79
2023/10/17 12:00:57;;;;;;;21.00;10.50;;;9.20;99.90;;;;;;5133695;27;20665;-78
2023/10/17 12:03:26;;;;;;;18.93;10.57;;;9.30;99.90;;;;;;5127794;27;20241;-78
2023/10/17 12:05:53;;;;;;;18.63;9.93;;;9.40;99.90;;;;;;5132141;27;20627;-78
2023/10/17 12:08:29;;;;;;;17.80;10.10;;;9.40;99.90;;;;;;5133839;27;20204;-78
2023/10/17 12:10:56;;;;;;;18.13;10.70;;;9.40;99.90;;;;;;5127432;27;20656;-78
2023/10/17 12:13:23;;;;;;;20.20;11.13;;;9.50;99.90;;;;;;5141662;27;20773;-78
2023/10/17 12:15:50;;;;;;;21.70;12.00;;;9.50;99.90;;;;;;5142375;27;20284;-79
2023/10/17 12:18:16;;;;;;;17.53;10.60;;;9.60;99.90;;;;;;5139434;27;20200;-78
2023/10/17 12:20:49;;;;;;;19.47;10.77;;;9.80;99.90;;;;;;5141942;27;20283;-78
2023/10/17 12:23:18;;;;;;;19.03;10.57;;;9.60;99.90;;;;;;5141898;27;20211;-79
2023/10/17 12:25:46;;;;;;;18.23;10.33;;;9.50;99.90;;;;;;5132165;27;20649;-78
2023/10/17 12:28:13;;;;;;;19.43;10.83;;;9.60;99.90;;;;;;5140001;27;20207;-78
2023/10/17 12:30:40;;;;;;;17.10;10.37;;;9.70;99.90;;;;;;5139955;27;20224;-78
2023/10/17 12:33:08;;;;;;;21.03;13.07;;;9.70;99.90;;;;;;5140453;27;20243;-78
2023/10/17 12:35:37;;;;;;;21.30;12.33;;;9.70;99.90;;;;;;5140259;27;20200;-77
2023/10/17 12:38:14;;;;;;;22.97;13.27;;;9.70;99.90;;;;;;5139497;27;20215;-77
2023/10/17 12:40:41;;;;;;;24.33;13.60;;;9.50;99.90;;;;;;5141041;27;20223;-77
2023/10/17 12:43:11;;;;;;;22.67;12.90;;;9.60;99.90;;;;;;5141507;27;20243;-78
2023/10/17 12:45:38;;;;;;;21.73;12.77;;;9.50;99.90;;;;;;5136141;27;20200;-77
2023/10/17 12:48:08;;;;;;;21.60;13.27;;;9.50;99.90;;;;;;5131163;27;20223;-79
2023/10/17 12:50:35;;;;;;;21.27;12.43;;;9.60;99.90;;;;;;5131073;27;20605;-79
2023/10/17 12:53:02;;;;;;;21.67;12.60;;;9.60;99.90;;;;;;5132965;27;20251;-78
2023/10/17 12:55:29;;;;;;;21.73;13.97;;;9.60;99.90;;;;;;5132424;27;20658;-78
2023/10/17 12:57:57;;;;;;;21.40;13.30;;;9.80;99.90;;;;;;5134243;27;20572;-77
2023/10/17 13:00:27;;;;;;;22.67;12.97;;;10.20;99.90;;;;;;5136577;27;20227;-78
2023/10/17 13:02:54;;;;;;;21.97;12.87;;;10.20;99.90;;;;;;5130644;27;20564;-78
2023/10/17 13:05:21;;;;;;;21.83;12.53;;;10.20;99.90;;;;;;5130102;27;20196;-78
2023/10/17 13:07:48;;;;;;;22.77;12.97;;;10.30;99.90;;;;;;5128392;27;20207;-78
2023/10/17 13:10:15;;;;;;;21.07;11.97;;;10.20;99.90;;;;;;5130621;27;20216;-79
2023/10/17 13:12:42;;;;;;;21.30;11.70;;;10.20;99.90;;;;;;5131894;27;20216;-77
2023/10/17 13:15:14;;;;;;;20.97;12.17;;;9.90;99.90;;;;;;5127086;27;20200;-78
2023/10/17 13:17:43;;;;;;;23.57;13.70;;;9.80;99.90;;;;;;5131764;27;20200;-79
2023/10/17 13:20:13;;;;;;;23.80;12.30;;;9.70;99.90;;;;;;5131029;27;20247;-78
2023/10/17 13:22:42;;;;;;;23.17;12.33;;;9.90;99.90;;;;;;5128565;27;20261;-78
2023/10/17 13:25:11;;;;;;;22.10;12.97;;;9.90;99.90;;;;;;5131851;27;20204;-78
2023/10/17 13:27:38;;;;;;;24.63;14.07;;;9.90;99.90;;;;;;5125002;27;20201;-79
2023/10/17 13:30:07;;;;;;;24.63;13.87;;;10.10;99.90;;;;;;5127229;27;20263;-78
2023/10/17 13:32:34;;;;;;;24.57;13.73;;;10.40;99.90;;;;;;5135580;27;20229;-78
2023/10/17 13:35:02;;;;;;;23.87;12.53;;;10.40;99.90;;;;;;5123713;27;20437;-78
2023/10/17 13:37:29;;;;;;;23.57;13.10;;;10.10;99.90;;;;;;5135092;27;20232;-78
2023/10/17 13:39:56;;;;;;;22.67;13.43;;;9.90;99.90;;;;;;5121877;27;20253;-78
2023/10/17 13:42:25;;;;;;;27.07;14.83;;;9.80;99.90;;;;;;5136553;27;20201;-78
2023/10/17 13:44:53;;;;;;;24.50;14.80;;;9.70;99.90;;;;;;5123002;27;20679;-77
2023/10/17 13:47:20;;;;;;;24.20;13.40;;;9.60;99.90;;;;;;5129335;27;20643;-77
2023/10/17 13:49:47;;;;;;;28.60;13.87;;;9.90;99.90;;;;;;5129365;27;20217;-79
2023/10/17 13:52:17;;;;;;;27.50;15.43;;;9.80;99.90;;;;;;5124736;27;20219;-77
2023/10/17 13:54:44;;;;;;;26.17;15.07;;;10.10;99.90;;;;;;5120739;27;20271;-77
2023/10/17 13:57:12;;;;;;;26.43;14.63;;;9.80;99.90;;;;;;5126289;27;20197;-78
2023/10/17 13:59:46;;;;;;;24.90;13.63;;;9.70;99.90;;;;;;5129480;27;20247;-78
2023/10/17 14:02:15;;;;;;;27.30;13.80;;;9.90;99.90;;;;;;5129772;27;20194;-78
2023/10/17 14:04:42;;;;;;;24.57;14.07;;;10.10;99.90;;;;;;5130531;27;20205;-78
2023/10/17 14:07:11;;;;;;;25.83;14.07;;;10.20;99.90;;;;;;5128734;27;20206;-78
2023/10/17 14:09:40;;;;;;;24.93;13.07;;;10.10;99.90;;;;;;5129777;27;20232;-78
2023/10/17 14:12:08;;;;;;;26.47;13.60;;;10.10;99.90;;;;;;5128356;27;20211;-78
2023/10/17 14:14:35;;;;;;;23.83;13.77;;;10.20;99.90;;;;;;5131964;27;20224;-78
2023/10/17 14:17:03;;;;;;;26.63;14.43;;;10.00;99.90;;;;;;5130072;27;20205;-79
2023/10/17 14:19:40;;;;;;;25.63;13.93;;;10.00;99.90;;;;;;5124179;27;20227;-78
2023/10/17 14:22:21;;;;;;;26.73;14.43;;;10.00;99.90;;;;;;5131492;27;20224;-78
2023/10/17 14:25:00;;;;;;;23.83;13.07;;;10.30;99.90;;;;;;5124858;27;20192;-79
2023/10/17 14:27:29;;;;;;;25.97;14.47;;;9.70;99.90;;;;;;5127702;27;20426;-77
2023/10/17 14:29:59;;;;;;;31.33;16.43;;;9.60;99.90;;;;;;5131119;27;20212;-78
2023/10/17 14:32:27;;;;;;;28.07;14.63;;;9.70;99.90;;;;;;5130470;27;20269;-77
2023/10/17 14:34:56;;;;;;;25.13;14.43;;;10.40;99.90;;;;;;5129740;27;20226;-79
2023/10/17 14:37:23;;;;;;;26.87;14.97;;;9.70;99.90;;;;;;5127168;27;20200;-78
2023/10/17 14:39:53;;;;;;;26.77;15.40;;;9.80;99.90;;;;;;5129014;27;20269;-76